Time;durP1;ratioP1;P1;durP2;ratioP2;P2;SDS_P1;SDS_P2;PMS_P1;PMS_P2;Temp;Humidity;BMP_temperature;BMP_pressure;BME280_temperature;BME280_humidity;BME280_pressure;Samples;Min_cycle;Max_cycle;Signal;HPM_P1;HPM_P2
2021/12/16 00:01:46;;;;;;;;;;;;;;;;;;5062617;28;19923;-68
2021/12/16 00:09:47;;;;;;;;;;;;;;;;;;5066509;28;19921;-67
2021/12/16 00:31:26;;;;;;;;;;;;;;;;;;5061400;28;19920;-69
2021/12/16 00:34:01;;;;;;;;;;;;;;;;;;5065849;28;19935;-70
2021/12/16 00:36:28;;;;;;;;;;;;;;;;;;5065073;28;20374;-68
2021/12/16 00:38:55;;;;;;;;;;;;;;;;;;5061443;28;20404;-68
2021/12/16 00:41:22;;;;;;;;;;;;;;;;;;5058908;28;20396;-68
2021/12/16 00:43:53;;;;;;;;;;;;;;;;;;5060750;28;20294;-69
2021/12/16 00:46:43;;;;;;;;;;;;;;;;;;5063410;28;20344;-69
2021/12/16 00:49:32;;;;;;;;;;;;;;;;;;5062415;28;19932;-69
2021/12/16 00:54:46;;;;;;;;;;;;;;;;;;5062805;28;20062;-68
2021/12/16 00:57:15;;;;;;;;;;;;;;;;;;5060517;28;20019;-68
2021/12/16 00:59:45;;;;;;;;;;;;;;;;;;5064359;28;19932;-68
2021/12/16 01:02:24;;;;;;;;;;;;;;;;;;5064004;28;19928;-68
2021/12/16 01:05:21;;;;;;;;;;;;;;;;;;5057900;28;19969;-68
2021/12/16 01:35:43;;;;;;;;;;;;;;;;;;5104233;28;19919;-64
2021/12/16 01:46:39;;;;;;;;;;;;;;;;;;5098823;28;20412;-65
2021/12/16 01:52:02;;;;;;;;;;;;;;;;;;5100362;28;20391;-64
2021/12/16 01:57:16;;;;;;;;;;;;;;;;;;5098464;28;20380;-65
2021/12/16 01:59:46;;;;;;;;;;;;;;;;;;5096624;28;19936;-65
2021/12/16 02:02:18;;;;;;;;;;;;;;;;;;5099130;28;19928;-65
2021/12/16 02:05:08;;;;;;;;;;;;;;;;;;5099341;28;19932;-65
2021/12/16 02:07:53;;;;;;;;;;;;;;;;;;5101623;28;19924;-65
2021/12/16 02:10:22;;;;;;;;;;;;;;;;;;5092954;28;19943;-65
2021/12/16 02:12:58;;;;;;;;;;;;;;;;;;5099161;28;19936;-65
2021/12/16 02:29:22;;;;;;;;;;;;;;;;;;5029025;28;20424;-64
2021/12/16 02:31:57;;;;;;;;;;;;;;;;;;5086400;28;19928;-65
2021/12/16 02:34:30;;;;;;;;;;;;;;;;;;5086398;28;20011;-65
2021/12/16 02:36:57;;;;;;;;;;;;;;;;;;5086751;28;19977;-64
2021/12/16 02:39:24;;;;;;;;;;;;;;;;;;5087142;28;19930;-65
2021/12/16 02:41:53;;;;;;;;;;;;;;;;;;5084292;28;19932;-65
2021/12/16 02:44:27;;;;;;;;;;;;;;;;;;5084277;28;19925;-64
2021/12/16 02:49:39;;;;;;;;;;;;;;;;;;5090143;28;19989;-64
2021/12/16 02:52:06;;;;;;;;;;;;;;;;;;5087892;28;19928;-65
2021/12/16 02:54:33;;;;;;;;;;;;;;;;;;5084815;28;19924;-66
2021/12/16 02:57:00;;;;;;;;;;;;;;;;;;5084521;28;19930;-64
2021/12/16 02:59:29;;;;;;;;;;;;;;;;;;5089160;28;19924;-65
2021/12/16 03:01:56;;;;;;;;;;;;;;;;;;5084113;28;19932;-64
2021/12/16 03:04:24;;;;;;;;;;;;;;;;;;5089607;28;20422;-64
2021/12/16 03:06:52;;;;;;;;;;;;;;;;;;5083690;28;20325;-64
2021/12/16 03:09:25;;;;;;;;;;;;;;;;;;5087522;28;19928;-64
2021/12/16 03:12:23;;;;;;;;;;;;;;;;;;5088425;28;19955;-65
2021/12/16 03:14:45;;;;;;;;;;;;;;;;;;5080890;28;19930;-64
2021/12/16 03:17:19;;;;;;;;;;;;;;;;;;5085344;28;19932;-64
2021/12/16 03:19:59;;;;;;;;;;;;;;;;;;5080581;28;19967;-65
2021/12/16 03:22:45;;;;;;;;;;;;;;;;;;5084917;28;20301;-65
2021/12/16 03:25:20;;;;;;;;;;;;;;;;;;5080968;28;19931;-64
2021/12/16 03:28:20;;;;;;;;;;;;;;;;;;5084424;28;20065;-64
2021/12/16 03:31:12;;;;;;;;;;;;;;;;;;5084076;28;20451;-65
2021/12/16 03:33:58;;;;;;;;;;;;;;;;;;5085461;28;19998;-64
2021/12/16 03:36:31;;;;;;;;;;;;;;;;;;5082647;28;19970;-65
2021/12/16 03:39:01;;;;;;;;;;;;;;;;;;5086947;28;20007;-68
2021/12/16 03:41:28;;;;;;;;;;;;;;;;;;5084145;28;20010;-64
2021/12/16 03:43:57;;;;;;;;;;;;;;;;;;5074542;28;20007;-65
2021/12/16 03:46:27;;;;;;;;;;;;;;;;;;5085025;28;19935;-65
2021/12/16 03:48:54;;;;;;;;;;;;;;;;;;5080990;28;19924;-65
2021/12/16 03:51:21;;;;;;;;;;;;;;;;;;5085166;28;19924;-63
2021/12/16 03:53:49;;;;;;;;;;;;;;;;;;5083857;28;19924;-64
2021/12/16 03:56:16;;;;;;;;;;;;;;;;;;5085505;28;19928;-65
2021/12/16 03:58:43;;;;;;;;;;;;;;;;;;5085991;28;19924;-65
2021/12/16 04:01:10;;;;;;;;;;;;;;;;;;5083914;28;20300;-63
2021/12/16 04:03:36;;;;;;;;;;;;;;;;;;5080373;28;20285;-65
2021/12/16 04:06:03;;;;;;;;;;;;;;;;;;5077454;28;20376;-65
2021/12/16 04:08:30;;;;;;;;;;;;;;;;;;5085504;28;19932;-65
2021/12/16 04:11:01;;;;;;;;;;;;;;;;;;5084088;28;20297;-66
2021/12/16 04:13:28;;;;;;;;;;;;;;;;;;5083549;28;19950;-64
2021/12/16 04:15:55;;;;;;;;;;;;;;;;;;5083151;28;19924;-64
2021/12/16 04:18:22;;;;;;;;;;;;;;;;;;5081091;28;19943;-64
2021/12/16 04:20:49;;;;;;;;;;;;;;;;;;5079236;28;19928;-65
2021/12/16 04:23:18;;;;;;;;;;;;;;;;;;5078755;28;19925;-64
2021/12/16 04:25:45;;;;;;;;;;;;;;;;;;5079492;28;19928;-65
2021/12/16 04:28:13;;;;;;;;;;;;;;;;;;5077778;28;19931;-65
2021/12/16 04:30:40;;;;;;;;;;;;;;;;;;5088592;28;19977;-65
2021/12/16 04:33:07;;;;;;;;;;;;;;;;;;5080837;28;20309;-65
2021/12/16 04:35:34;;;;;;;;;;;;;;;;;;5077957;28;20306;-65
2021/12/16 04:38:01;;;;;;;;;;;;;;;;;;5085902;28;19924;-64
2021/12/16 04:40:29;;;;;;;;;;;;;;;;;;5083130;28;19930;-64
2021/12/16 04:43:00;;;;;;;;;;;;;;;;;;5080584;28;19932;-64
2021/12/16 04:45:27;;;;;;;;;;;;;;;;;;5078538;28;19950;-65
2021/12/16 04:47:54;;;;;;;;;;;;;;;;;;5079919;28;19924;-65
2021/12/16 04:50:21;;;;;;;;;;;;;;;;;;5081700;28;19925;-65
2021/12/16 04:52:48;;;;;;;;;;;;;;;;;;5080456;28;19928;-65
2021/12/16 04:55:15;;;;;;;;;;;;;;;;;;5083560;28;19924;-65
2021/12/16 04:57:42;;;;;;;;;;;;;;;;;;5083049;28;19930;-65
2021/12/16 05:00:09;;;;;;;;;;;;;;;;;;5083500;28;19924;-65
2021/12/16 05:02:36;;;;;;;;;;;;;;;;;;5086899;28;19924;-64
2021/12/16 05:05:03;;;;;;;;;;;;;;;;;;5079399;28;19947;-65
2021/12/16 05:07:29;;;;;;;;;;;;;;;;;;5082334;28;20059;-65
2021/12/16 05:10:09;;;;;;;;;;;;;;;;;;5082799;28;19932;-64
2021/12/16 05:12:37;;;;;;;;;;;;;;;;;;5079347;28;19932;-64
2021/12/16 05:15:04;;;;;;;;;;;;;;;;;;5085159;28;20015;-64
2021/12/16 05:17:36;;;;;;;;;;;;;;;;;;5083433;28;20011;-64
2021/12/16 05:20:07;;;;;;;;;;;;;;;;;;5079844;28;19982;-65
2021/12/16 05:25:28;;;;;;;;;;;;;;;;;;5082541;28;20467;-65
2021/12/16 05:27:55;;;;;;;;;;;;;;;;;;5084085;28;19932;-65
2021/12/16 05:30:22;;;;;;;;;;;;;;;;;;5081729;28;20362;-65
2021/12/16 05:32:49;;;;;;;;;;;;;;;;;;5085815;28;19931;-64
2021/12/16 05:35:16;;;;;;;;;;;;;;;;;;5082307;28;19924;-64
2021/12/16 05:37:44;;;;;;;;;;;;;;;;;;5078068;28;19962;-64
2021/12/16 05:40:11;;;;;;;;;;;;;;;;;;5076851;28;21361;-64
2021/12/16 05:42:38;;;;;;;;;;;;;;;;;;5083799;28;20259;-64
2021/12/16 05:45:05;;;;;;;;;;;;;;;;;;5082812;28;19928;-66
2021/12/16 05:47:32;;;;;;;;;;;;;;;;;;5081717;28;20014;-65
2021/12/16 05:49:59;;;;;;;;;;;;;;;;;;5080408;28;19928;-65
2021/12/16 05:52:26;;;;;;;;;;;;;;;;;;5083684;28;20374;-65
2021/12/16 05:54:53;;;;;;;;;;;;;;;;;;5079601;28;19928;-64
2021/12/16 05:57:20;;;;;;;;;;;;;;;;;;5085424;28;19935;-64
2021/12/16 05:59:47;;;;;;;;;;;;;;;;;;5083773;28;19928;-65
2021/12/16 06:02:14;;;;;;;;;;;;;;;;;;5081822;28;20267;-65
2021/12/16 06:04:41;;;;;;;;;;;;;;;;;;5083106;28;19930;-65
2021/12/16 06:07:09;;;;;;;;;;;;;;;;;;5087952;28;19990;-65
2021/12/16 06:09:36;;;;;;;;;;;;;;;;;;5087938;28;19985;-65
2021/12/16 06:12:02;;;;;;;;;;;;;;;;;;5087412;28;19930;-65
2021/12/16 06:14:45;;;;;;;;;;;;;;;;;;5086089;28;20019;-65
2021/12/16 06:26:23;;;;;;;;;;;;;;;;;;5083953;28;19939;-64
2021/12/16 06:28:20;;;;;;;;;;;;;;;;;;5085032;28;19922;-65
2021/12/16 06:30:47;;;;;;;;;;;;;;;;;;5084775;28;19928;-64
2021/12/16 06:33:14;;;;;;;;;;;;;;;;;;5086025;28;20010;-65
2021/12/16 06:35:41;;;;;;;;;;;;;;;;;;5088067;28;19932;-65
2021/12/16 06:38:08;;;;;;;;;;;;;;;;;;5078968;28;20007;-65
2021/12/16 06:40:35;;;;;;;;;;;;;;;;;;5088881;28;19928;-65
2021/12/16 06:43:03;;;;;;;;;;;;;;;;;;5086289;28;19930;-64
2021/12/16 06:45:34;;;;;;;;;;;;;;;;;;5083583;28;19939;-64
2021/12/16 06:48:05;;;;;;;;;;;;;;;;;;5083978;28;20018;-64
2021/12/16 06:50:40;;;;;;;;;;;;;;;;;;5082880;28;20022;-64
2021/12/16 06:53:08;;;;;;;;;;;;;;;;;;5081839;28;20023;-64
2021/12/16 06:55:41;;;;;;;;;;;;;;;;;;5082467;28;19978;-64
2021/12/16 06:58:17;;;;;;;;;;;;;;;;;;5086928;28;20014;-64
2021/12/16 07:00:47;;;;;;;;;;;;;;;;;;5085456;28;19928;-64
2021/12/16 07:03:20;;;;;;;;;;;;;;;;;;5085760;28;20535;-64
2021/12/16 07:05:47;;;;;;;;;;;;;;;;;;5085569;28;19924;-64
2021/12/16 07:08:13;;;;;;;;;;;;;;;;;;5087186;28;20301;-64
2021/12/16 07:10:45;;;;;;;;;;;;;;;;;;5086941;28;20371;-64
2021/12/16 07:13:17;;;;;;;;;;;;;;;;;;5083396;28;19924;-65
2021/12/16 07:15:44;;;;;;;;;;;;;;;;;;5084738;28;20297;-64
2021/12/16 07:18:11;;;;;;;;;;;;;;;;;;5080609;28;19925;-66
2021/12/16 07:20:38;;;;;;;;;;;;;;;;;;5087703;28;19930;-64
2021/12/16 07:23:05;;;;;;;;;;;;;;;;;;5080700;28;19931;-65
2021/12/16 07:25:32;;;;;;;;;;;;;;;;;;5087322;28;19924;-64
2021/12/16 07:27:59;;;;;;;;;;;;;;;;;;5082826;28;19924;-64
2021/12/16 07:30:26;;;;;;;;;;;;;;;;;;5085104;28;20650;-64
2021/12/16 07:32:53;;;;;;;;;;;;;;;;;;5086212;28;19929;-63
2021/12/16 07:35:20;;;;;;;;;;;;;;;;;;5084442;28;19928;-64
2021/12/16 07:37:47;;;;;;;;;;;;;;;;;;5088138;28;19924;-63
2021/12/16 07:40:14;;;;;;;;;;;;;;;;;;5086014;28;19931;-63
2021/12/16 07:42:48;;;;;;;;;;;;;;;;;;5079326;28;19924;-63
2021/12/16 07:45:15;;;;;;;;;;;;;;;;;;5083211;28;19947;-63
2021/12/16 07:47:41;;;;;;;;;;;;;;;;;;5087248;28;20300;-64
2021/12/16 07:50:08;;;;;;;;;;;;;;;;;;5082965;28;20393;-64
2021/12/16 07:52:36;;;;;;;;;;;;;;;;;;5081086;28;20023;-64
2021/12/16 07:55:03;;;;;;;;;;;;;;;;;;5086966;28;19940;-64
2021/12/16 07:57:30;;;;;;;;;;;;;;;;;;5082286;28;19935;-64
2021/12/16 07:59:57;;;;;;;;;;;;;;;;;;5080378;28;19924;-64
2021/12/16 08:02:23;;;;;;;;;;;;;;;;;;5083056;28;20338;-63
2021/12/16 08:04:52;;;;;;;;;;;;;;;;;;5084083;28;20027;-64
2021/12/16 08:07:20;;;;;;;;;;;;;;;;;;5085794;28;20259;-65
2021/12/16 08:09:47;;;;;;;;;;;;;;;;;;5086705;28;19998;-64
2021/12/16 08:12:14;;;;;;;;;;;;;;;;;;5083572;28;21218;-66
2021/12/16 08:14:41;;;;;;;;;;;;;;;;;;5079474;28;20306;-64
2021/12/16 08:17:08;;;;;;;;;;;;;;;;;;5081979;28;19962;-63
2021/12/16 08:19:36;;;;;;;;;;;;;;;;;;5085969;28;19932;-64
2021/12/16 08:22:03;;;;;;;;;;;;;;;;;;5086242;28;20015;-64
2021/12/16 08:24:30;;;;;;;;;;;;;;;;;;5083384;28;22207;-64
2021/12/16 08:26:57;;;;;;;;;;;;;;;;;;5079635;28;20374;-67
2021/12/16 08:29:24;;;;;;;;;;;;;;;;;;5083537;28;19946;-64
2021/12/16 08:31:51;;;;;;;;;;;;;;;;;;5083682;28;19988;-65
2021/12/16 08:34:18;;;;;;;;;;;;;;;;;;5086081;28;20353;-65
2021/12/16 08:36:45;;;;;;;;;;;;;;;;;;5083835;28;19928;-63
2021/12/16 08:39:12;;;;;;;;;;;;;;;;;;5083898;28;20134;-64
2021/12/16 08:41:39;;;;;;;;;;;;;;;;;;5087656;28;19932;-66
2021/12/16 08:44:06;;;;;;;;;;;;;;;;;;5081494;28;19925;-65
2021/12/16 08:46:33;;;;;;;;;;;;;;;;;;5082003;28;19931;-65
2021/12/16 08:49:00;;;;;;;;;;;;;;;;;;5080861;28;19924;-64
2021/12/16 08:51:27;;;;;;;;;;;;;;;;;;5083534;28;19924;-66
2021/12/16 08:53:54;;;;;;;;;;;;;;;;;;5078472;28;19939;-66
2021/12/16 08:56:21;;;;;;;;;;;;;;;;;;5070376;28;19950;-66
2021/12/16 08:58:48;;;;;;;;;;;;;;;;;;5080112;28;20010;-65
2021/12/16 09:01:15;;;;;;;;;;;;;;;;;;5077609;28;19932;-65
2021/12/16 09:03:42;;;;;;;;;;;;;;;;;;5080921;28;19930;-64
2021/12/16 09:06:09;;;;;;;;;;;;;;;;;;5073595;28;19932;-64
2021/12/16 09:08:36;;;;;;;;;;;;;;;;;;5081214;28;20074;-65
2021/12/16 09:11:05;;;;;;;;;;;;;;;;;;5082733;28;19931;-64
2021/12/16 09:13:32;;;;;;;;;;;;;;;;;;5075910;28;19971;-64
2021/12/16 09:15:59;;;;;;;;;;;;;;;;;;5077824;28;19930;-64
2021/12/16 09:18:26;;;;;;;;;;;;;;;;;;5079854;28;19939;-65
2021/12/16 09:20:55;;;;;;;;;;;;;;;;;;5081554;28;20381;-65
2021/12/16 09:23:22;;;;;;;;;;;;;;;;;;5078018;28;19924;-64
2021/12/16 09:25:49;;;;;;;;;;;;;;;;;;5075253;28;19931;-66
2021/12/16 09:28:16;;;;;;;;;;;;;;;;;;5080591;28;20313;-65
2021/12/16 09:30:44;;;;;;;;;;;;;;;;;;5086648;28;20004;-65
2021/12/16 09:33:14;;;;;;;;;;;;;;;;;;5088176;28;20274;-65
2021/12/16 09:35:41;;;;;;;;;;;;;;;;;;5092140;28;20023;-66
2021/12/16 09:38:09;;;;;;;;;;;;;;;;;;5090889;28;19932;-66
2021/12/16 09:40:39;;;;;;;;;;;;;;;;;;5089801;28;20278;-66
2021/12/16 09:43:06;;;;;;;;;;;;;;;;;;5084298;28;20022;-66
2021/12/16 09:45:33;;;;;;;;;;;;;;;;;;5088846;28;19931;-65
2021/12/16 09:48:00;;;;;;;;;;;;;;;;;;5084965;28;19934;-65
2021/12/16 09:50:27;;;;;;;;;;;;;;;;;;5090781;28;19924;-65
2021/12/16 09:52:54;;;;;;;;;;;;;;;;;;5084681;28;19969;-66
2021/12/16 09:55:21;;;;;;;;;;;;;;;;;;5087186;28;19924;-66
2021/12/16 09:57:48;;;;;;;;;;;;;;;;;;5088496;28;19947;-66
2021/12/16 10:00:16;;;;;;;;;;;;;;;;;;5087329;28;20029;-66
2021/12/16 10:02:43;;;;;;;;;;;;;;;;;;5083697;28;19924;-66
2021/12/16 10:05:10;;;;;;;;;;;;;;;;;;5083920;28;20469;-66
2021/12/16 10:07:37;;;;;;;;;;;;;;;;;;5075668;28;19973;-66
2021/12/16 10:10:04;;;;;;;;;;;;;;;;;;5084275;28;20038;-67
2021/12/16 10:12:36;;;;;;;;;;;;;;;;;;5081830;28;19977;-66
2021/12/16 10:17:21;;;;;;;;;;;;;;;;;;5084554;28;19935;-66
2021/12/16 10:17:53;;;;;;;;;;;;;;;;;;5081960;28;19959;-65
2021/12/16 10:20:20;;;;;;;;;;;;;;;;;;5083571;28;20040;-66
2021/12/16 10:22:47;;;;;;;;;;;;;;;;;;5082293;28;19946;-66
2021/12/16 10:25:14;;;;;;;;;;;;;;;;;;5085726;28;19970;-65
2021/12/16 10:27:41;;;;;;;;;;;;;;;;;;5087648;28;19931;-65
2021/12/16 10:30:08;;;;;;;;;;;;;;;;;;5082817;28;19924;-67
2021/12/16 10:32:36;;;;;;;;;;;;;;;;;;5083987;28;20425;-66
2021/12/16 10:35:03;;;;;;;;;;;;;;;;;;5081811;28;19931;-67
2021/12/16 10:37:30;;;;;;;;;;;;;;;;;;5086178;28;20026;-65
2021/12/16 10:39:57;;;;;;;;;;;;;;;;;;5080905;28;20082;-68
2021/12/16 10:42:24;;;;;;;;;;;;;;;;;;5079648;28;19924;-65
2021/12/16 10:44:51;;;;;;;;;;;;;;;;;;5082149;28;19924;-66
2021/12/16 10:47:18;;;;;;;;;;;;;;;;;;5087542;28;19928;-68
2021/12/16 10:49:45;;;;;;;;;;;;;;;;;;5084422;28;19924;-65
2021/12/16 10:52:12;;;;;;;;;;;;;;;;;;5085258;28;19923;-66
2021/12/16 10:54:42;;;;;;;;;;;;;;;;;;5080015;28;19928;-66
2021/12/16 10:57:09;;;;;;;;;;;;;;;;;;5081354;28;20405;-66
2021/12/16 10:59:36;;;;;;;;;;;;;;;;;;5082178;28;20006;-66
2021/12/16 11:02:03;;;;;;;;;;;;;;;;;;5069336;28;19928;-66
2021/12/16 11:04:30;;;;;;;;;;;;;;;;;;5078326;28;19924;-66
2021/12/16 11:06:57;;;;;;;;;;;;;;;;;;5074223;28;20293;-66
2021/12/16 11:09:23;;;;;;;;;;;;;;;;;;5078709;28;19928;-66
2021/12/16 11:11:50;;;;;;;;;;;;;;;;;;5084073;28;19931;-66
2021/12/16 11:14:17;;;;;;;;;;;;;;;;;;5067688;28;19928;-66
2021/12/16 11:16:45;;;;;;;;;;;;;;;;;;5079088;28;19925;-66
2021/12/16 11:19:12;;;;;;;;;;;;;;;;;;5085326;28;20031;-66
2021/12/16 11:21:40;;;;;;;;;;;;;;;;;;5081226;28;20041;-66
2021/12/16 11:24:07;;;;;;;;;;;;;;;;;;5082177;28;19979;-66
2021/12/16 11:26:38;;;;;;;;;;;;;;;;;;5079732;28;19930;-66
2021/12/16 11:29:05;;;;;;;;;;;;;;;;;;5081926;28;19924;-67
2021/12/16 11:31:32;;;;;;;;;;;;;;;;;;5079183;28;19924;-66
2021/12/16 11:33:59;;;;;;;;;;;;;;;;;;5079323;28;19924;-66
2021/12/16 11:36:25;;;;;;;;;;;;;;;;;;5079677;28;19924;-66
2021/12/16 11:38:52;;;;;;;;;;;;;;;;;;5079050;28;19932;-65
2021/12/16 11:41:19;;;;;;;;;;;;;;;;;;5081167;28;19928;-66
2021/12/16 11:43:46;;;;;;;;;;;;;;;;;;5084198;28;19928;-67
2021/12/16 11:46:13;;;;;;;;;;;;;;;;;;5085219;28;19935;-65
2021/12/16 11:48:41;;;;;;;;;;;;;;;;;;5081247;28;20005;-65
2021/12/16 11:51:07;;;;;;;;;;;;;;;;;;5079899;28;19936;-65
2021/12/16 11:53:34;;;;;;;;;;;;;;;;;;5080621;28;19979;-65
2021/12/16 11:58:46;;;;;;;;;;;;;;;;;;5082794;28;19927;-65
2021/12/16 12:01:13;;;;;;;;;;;;;;;;;;5084500;22;19938;-65
2021/12/16 12:03:40;;;;;;;;;;;;;;;;;;5094522;28;19930;-64
2021/12/16 12:30:41;;;;;;;;;;;;;;;;;;5761219;22;19932;-70
2021/12/16 12:33:08;;;;;;;;;;;;;;;;;;5035330;28;20292;-69
2021/12/16 12:35:35;;;;;;;;;;;;;;;;;;5038036;28;20353;-69
2021/12/16 12:38:02;;;;;;;;;;;;;;;;;;5038811;28;19940;-70
2021/12/16 12:40:29;;;;;;;;;;;;;;;;;;5039563;28;19933;-71
2021/12/16 12:42:56;;;;;;;;;;;;;;;;;;5050952;22;19925;-70
2021/12/16 12:45:23;;;;;;;;;;;;;;;;;;5041644;28;20023;-70
2021/12/16 12:47:50;;;;;;;;;;;;;;;;;;5041236;28;19935;-70
2021/12/16 12:50:17;;;;;;;;;;;;;;;;;;5044786;28;19940;-71
2021/12/16 12:52:46;;;;;;;;;;;;;;;;;;5043867;28;19929;-70
2021/12/16 12:55:13;;;;;;;;;;;;;;;;;;5028579;22;19933;-69
2021/12/16 12:57:40;;;;;;;;;;;;;;;;;;5003453;28;19925;-70
2021/12/16 13:00:07;;;;;;;;;;;;;;;;;;4994246;28;19926;-69
2021/12/16 13:02:35;;;;;;;;;;;;;;;;;;4996039;28;19926;-69
2021/12/16 13:05:02;;;;;;;;;;;;;;;;;;4994527;28;19973;-71
2021/12/16 13:07:28;;;;;;;;;;;;;;;;;;4996735;28;19932;-72
2021/12/16 13:09:55;;;;;;;;;;;;;;;;;;4992150;28;19925;-71
2021/12/16 13:12:23;;;;;;;;;;;;;;;;;;4994119;28;19924;-69
2021/12/16 13:14:52;;;;;;;;;;;;;;;;;;4993356;28;19952;-70
2021/12/16 13:17:43;;;;;;;;;;;;;;;;;;4997900;28;19975;-70
2021/12/16 13:26:04;;;;;;;;;;;;;;;;;;4994727;28;19921;-68
2021/12/16 13:28:40;;;;;;;;;;;;;;;;;;4997828;28;19941;-68
2021/12/16 13:31:08;;;;;;;;;;;;;;;;;;4991760;28;19936;-68
2021/12/16 13:33:39;;;;;;;;;;;;;;;;;;4998217;28;20019;-69
2021/12/16 13:36:14;;;;;;;;;;;;;;;;;;4996207;28;20268;-69
2021/12/16 13:38:41;;;;;;;;;;;;;;;;;;5000322;28;19933;-69
2021/12/16 13:41:08;;;;;;;;;;;;;;;;;;4992289;28;20031;-68
2021/12/16 13:43:37;;;;;;;;;;;;;;;;;;4999313;28;20137;-69
2021/12/16 13:46:22;;;;;;;;;;;;;;;;;;4999035;28;19926;-70
2021/12/16 13:48:59;;;;;;;;;;;;;;;;;;4991321;28;19933;-70
2021/12/16 14:02:47;;;;;;;;;;;;;;;;;;4992845;28;19955;-70
2021/12/16 14:05:21;;;;;;;;;;;;;;;;;;4991399;28;19930;-69
2021/12/16 14:07:56;;;;;;;;;;;;;;;;;;4999161;28;20391;-69
2021/12/16 14:10:29;;;;;;;;;;;;;;;;;;4993910;28;20004;-70
2021/12/16 14:16:00;;;;;;;;;;;;;;;;;;4961427;28;20219;-69
2021/12/16 14:24:11;;;;;;;;;;;;;;;;;;5002372;28;19920;-68
2021/12/16 14:26:49;;;;;;;;;;;;;;;;;;5000469;28;20154;-69
2021/12/16 14:35:00;;;;;;;;;;;;;;;;;;5004542;28;19929;-69
2021/12/16 14:37:34;;;;;;;;;;;;;;;;;;4997980;28;19929;-69
2021/12/16 14:42:59;;;;;;;;;;;;;;;;;;4998404;28;19922;-68
2021/12/16 14:45:32;;;;;;;;;;;;;;;;;;5003406;28;19937;-68
2021/12/16 14:48:08;;;;;;;;;;;;;;;;;;5000433;28;19930;-69
2021/12/16 14:50:35;;;;;;;;;;;;;;;;;;5000416;28;20004;-70
2021/12/16 14:53:02;;;;;;;;;;;;;;;;;;4996483;28;19926;-69
2021/12/16 14:55:29;;;;;;;;;;;;;;;;;;4995223;28;19931;-68
2021/12/16 14:57:56;;;;;;;;;;;;;;;;;;4998081;28;20020;-68
2021/12/16 15:00:24;;;;;;;;;;;;;;;;;;4998968;28;19948;-68
2021/12/16 15:02:52;;;;;;;;;;;;;;;;;;4996542;28;20321;-68
2021/12/16 15:05:19;;;;;;;;;;;;;;;;;;5000249;28;19936;-68
2021/12/16 15:07:46;;;;;;;;;;;;;;;;;;4997778;28;19925;-69
2021/12/16 15:10:15;;;;;;;;;;;;;;;;;;4999285;28;19926;-69
2021/12/16 15:12:48;;;;;;;;;;;;;;;;;;4995975;28;19996;-69
2021/12/16 15:15:23;;;;;;;;;;;;;;;;;;5001471;28;19925;-69
2021/12/16 15:32:31;;;;;;;;;;;;;;;;;;5000429;28;19921;-68
2021/12/16 15:37:33;;;;;;;;;;;;;;;;;;5000593;28;19920;-68
2021/12/16 15:40:15;;;;;;;;;;;;;;;;;;4987197;28;20532;-67
2021/12/16 15:42:49;;;;;;;;;;;;;;;;;;4998978;28;19934;-68
2021/12/16 15:45:17;;;;;;;;;;;;;;;;;;4999947;28;19922;-69
2021/12/16 15:47:44;;;;;;;;;;;;;;;;;;4997821;28;19926;-66
2021/12/16 15:50:11;;;;;;;;;;;;;;;;;;4999100;28;19926;-68
2021/12/16 15:52:48;;;;;;;;;;;;;;;;;;;;;
2021/12/16 15:55:19;;;;;;;;;;;;;;;;;;4991111;28;19929;-69
2021/12/16 15:57:46;;;;;;;;;;;;;;;;;;4996394;28;19925;-69
2021/12/16 16:00:12;;;;;;;;;;;;;;;;;;5028011;28;20378;-70
2021/12/16 16:02:39;;;;;;;;;;;;;;;;;;5021122;28;19925;-68
2021/12/16 16:05:06;;;;;;;;;;;;;;;;;;5013251;28;19925;-68
2021/12/16 16:07:33;;;;;;;;;;;;;;;;;;5021196;28;19980;-68
2021/12/16 16:10:00;;;;;;;;;;;;;;;;;;5016807;28;19926;-69
2021/12/16 16:12:29;;;;;;;;;;;;;;;;;;5020554;28;19936;-68
2021/12/16 16:15:00;;;;;;;;;;;;;;;;;;5003990;28;19933;-68
2021/12/16 16:17:28;;;;;;;;;;;;;;;;;;5022376;28;20036;-68
2021/12/16 16:19:55;;;;;;;;;;;;;;;;;;5016107;28;19925;-68
2021/12/16 16:22:22;;;;;;;;;;;;;;;;;;5002227;28;19932;-69
2021/12/16 16:24:49;;;;;;;;;;;;;;;;;;5013913;28;19926;-67
2021/12/16 16:27:16;;;;;;;;;;;;;;;;;;5009628;28;19979;-68
2021/12/16 16:29:42;;;;;;;;;;;;;;;;;;4998389;28;19932;-66
2021/12/16 16:32:09;;;;;;;;;;;;;;;;;;5014978;28;19925;-67
2021/12/16 16:34:36;;;;;;;;;;;;;;;;;;4997068;28;19941;-67
2021/12/16 16:37:04;;;;;;;;;;;;;;;;;;5005141;28;20271;-67
2021/12/16 16:39:31;;;;;;;;;;;;;;;;;;4998590;28;20477;-68
2021/12/16 16:41:58;;;;;;;;;;;;;;;;;;5011365;28;19941;-68
2021/12/16 16:44:25;;;;;;;;;;;;;;;;;;5005289;28;20227;-67
2021/12/16 16:46:56;;;;;;;;;;;;;;;;;;5003560;28;19937;-67
2021/12/16 16:49:26;;;;;;;;;;;;;;;;;;4998717;28;19926;-67
2021/12/16 16:51:53;;;;;;;;;;;;;;;;;;5010266;28;19926;-68
2021/12/16 16:54:20;;;;;;;;;;;;;;;;;;5001167;28;19932;-68
2021/12/16 16:56:47;;;;;;;;;;;;;;;;;;5008811;28;19925;-68
2021/12/16 16:59:14;;;;;;;;;;;;;;;;;;4997503;28;19925;-68
2021/12/16 17:01:41;;;;;;;;;;;;;;;;;;5006326;28;19929;-68
2021/12/16 17:04:08;;;;;;;;;;;;;;;;;;5013342;28;20271;-68
2021/12/16 17:06:35;;;;;;;;;;;;;;;;;;5003429;28;19925;-68
2021/12/16 17:09:02;;;;;;;;;;;;;;;;;;5004389;28;19933;-68
2021/12/16 17:11:29;;;;;;;;;;;;;;;;;;5008082;28;19924;-68
2021/12/16 17:14:00;;;;;;;;;;;;;;;;;;4995496;28;19926;-68
2021/12/16 17:19:11;;;;;;;;;;;;;;;;;;5014776;28;19920;-68
2021/12/16 17:21:38;;;;;;;;;;;;;;;;;;4995903;28;19925;-68
2021/12/16 17:24:05;;;;;;;;;;;;;;;;;;5016525;28;19925;-69
2021/12/16 17:26:32;;;;;;;;;;;;;;;;;;5019225;28;19926;-68
2021/12/16 17:28:59;;;;;;;;;;;;;;;;;;5001399;28;20016;-68
2021/12/16 17:31:26;;;;;;;;;;;;;;;;;;5005543;28;19926;-68
2021/12/16 17:33:53;;;;;;;;;;;;;;;;;;5002520;28;19932;-68
2021/12/16 17:36:20;;;;;;;;;;;;;;;;;;5008186;28;19926;-67
2021/12/16 17:38:47;;;;;;;;;;;;;;;;;;5000292;28;19965;-68
2021/12/16 17:41:14;;;;;;;;;;;;;;;;;;4995745;28;19934;-69
2021/12/16 17:43:41;;;;;;;;;;;;;;;;;;4995210;28;20927;-69
2021/12/16 17:46:08;;;;;;;;;;;;;;;;;;4999505;28;19933;-69
2021/12/16 17:48:34;;;;;;;;;;;;;;;;;;4993748;28;19952;-69
2021/12/16 17:51:01;;;;;;;;;;;;;;;;;;4994328;28;19929;-69
2021/12/16 17:53:28;;;;;;;;;;;;;;;;;;4998209;28;19934;-71
2021/12/16 17:55:55;;;;;;;;;;;;;;;;;;5000369;28;19930;-70
2021/12/16 17:58:23;;;;;;;;;;;;;;;;;;5003303;28;19926;-71
2021/12/16 18:00:50;;;;;;;;;;;;;;;;;;5002715;28;20310;-69
2021/12/16 18:03:17;;;;;;;;;;;;;;;;;;5000781;28;20016;-70
2021/12/16 18:05:44;;;;;;;;;;;;;;;;;;5001820;28;19952;-69
2021/12/16 18:08:11;;;;;;;;;;;;;;;;;;5006156;28;19925;-70
2021/12/16 18:10:38;;;;;;;;;;;;;;;;;;5005128;28;19956;-70
2021/12/16 18:13:05;;;;;;;;;;;;;;;;;;5003420;28;19930;-71
2021/12/16 18:15:32;;;;;;;;;;;;;;;;;;5000079;28;19930;-70
2021/12/16 18:17:59;;;;;;;;;;;;;;;;;;4999451;28;20613;-69
2021/12/16 18:20:26;;;;;;;;;;;;;;;;;;5002599;28;20386;-70
2021/12/16 18:22:53;;;;;;;;;;;;;;;;;;4999251;28;20671;-69
2021/12/16 18:25:20;;;;;;;;;;;;;;;;;;5004326;28;20237;-70
2021/12/16 18:27:48;;;;;;;;;;;;;;;;;;4996787;28;19941;-70
2021/12/16 18:30:15;;;;;;;;;;;;;;;;;;5002035;28;20397;-70
2021/12/16 18:32:42;;;;;;;;;;;;;;;;;;4996264;28;20298;-69
2021/12/16 18:35:09;;;;;;;;;;;;;;;;;;5003918;28;20165;-69
2021/12/16 18:37:35;;;;;;;;;;;;;;;;;;4998545;28;20387;-72
2021/12/16 18:40:02;;;;;;;;;;;;;;;;;;4997753;28;19941;-70
2021/12/16 18:42:30;;;;;;;;;;;;;;;;;;4998781;28;19965;-71
2021/12/16 18:44:57;;;;;;;;;;;;;;;;;;5001128;28;21684;-71
2021/12/16 18:47:28;;;;;;;;;;;;;;;;;;4992015;28;20015;-70
2021/12/16 18:49:59;;;;;;;;;;;;;;;;;;5003520;28;19931;-69
2021/12/16 18:52:33;;;;;;;;;;;;;;;;;;5001072;28;19936;-70
2021/12/16 18:54:59;;;;;;;;;;;;;;;;;;5036685;23;19935;-72
2021/12/16 18:57:26;;;;;;;;;;;;;;;;;;5066015;28;19939;-73
2021/12/16 18:59:53;;;;;;;;;;;;;;;;;;5069334;28;19939;-71
2021/12/16 19:02:20;;;;;;;;;;;;;;;;;;5068300;28;19932;-72
2021/12/16 19:04:47;;;;;;;;;;;;;;;;;;5064808;28;20015;-72
2021/12/16 19:07:14;;;;;;;;;;;;;;;;;;5061945;28;19932;-73
2021/12/16 19:09:41;;;;;;;;;;;;;;;;;;5060391;28;19978;-73
2021/12/16 19:12:08;;;;;;;;;;;;;;;;;;5062387;28;20327;-72
2021/12/16 19:14:36;;;;;;;;;;;;;;;;;;5058823;28;19931;-70
2021/12/16 19:17:04;;;;;;;;;;;;;;;;;;5067407;28;20022;-70
2021/12/16 19:19:31;;;;;;;;;;;;;;;;;;5061158;28;20026;-70
2021/12/16 19:21:58;;;;;;;;;;;;;;;;;;5060743;28;19924;-71
2021/12/16 19:24:25;;;;;;;;;;;;;;;;;;5064139;28;19925;-71
2021/12/16 19:26:52;;;;;;;;;;;;;;;;;;5060584;28;19935;-72
2021/12/16 19:29:19;;;;;;;;;;;;;;;;;;5061984;28;19935;-71
2021/12/16 19:31:46;;;;;;;;;;;;;;;;;;5062271;28;20404;-73
2021/12/16 19:34:13;;;;;;;;;;;;;;;;;;5064021;28;19930;-71
2021/12/16 19:36:40;;;;;;;;;;;;;;;;;;5064498;28;19944;-72
2021/12/16 19:39:07;;;;;;;;;;;;;;;;;;5062956;28;19946;-73
2021/12/16 19:41:33;;;;;;;;;;;;;;;;;;5062705;28;19936;-71
2021/12/16 19:44:00;;;;;;;;;;;;;;;;;;5065940;28;19935;-69
2021/12/16 19:46:27;;;;;;;;;;;;;;;;;;5060206;28;19925;-71
2021/12/16 19:48:54;;;;;;;;;;;;;;;;;;5061714;28;19939;-73
2021/12/16 19:51:21;;;;;;;;;;;;;;;;;;5061126;28;19925;-74
2021/12/16 19:53:48;;;;;;;;;;;;;;;;;;5060318;28;19925;-73
2021/12/16 19:56:16;;;;;;;;;;;;;;;;;;5066810;28;19924;-73